Hall Beach, Canada
Current Conditions -  °F | °C
As of 9:00 PM on Thursday 20 Nov 2014 (Local Time) from CYUX Reporting Station
Clear Clear  
Wind Chill: -37°   Ceiling: Unl
Heat Index: -11°   Visibility: 9mi
Dew Point: -15°   Wind: 21mph
Humidity: 84%   Direction: 320°NW
Pressure: 29.26"   Gusts: NA
Location:  68.78°N, 81.22°W
Report Text: CYUX 210200Z AUTO 32018KT 9SM CLR M24/M26 A2926 RMK SLP909
Loading
Personal Weather Stations






























Interactive Weather Map New forecast layout! Learn more

10-Day Weather Forecast

Advertisements
Track Severe Weather on mobile